createdAt,value
2018-06-18T00:57:52.787Z,17.33
2018-06-18T01:00:22.149Z,15.30
2018-06-18T01:02:50.945Z,20.53
2018-06-18T01:05:19.538Z,15.80
2018-06-18T01:07:48.392Z,27.20
2018-06-18T01:10:17.041Z,18.00
2018-06-18T01:12:45.452Z,20.03
2018-06-18T01:15:14.145Z,24.67
2018-06-18T01:17:42.578Z,17.27
2018-06-18T01:20:11.088Z,17.53
2018-06-18T01:22:42.573Z,17.30
2018-06-18T01:25:11.911Z,24.17
2018-06-18T01:27:40.558Z,17.30
2018-06-18T01:30:09.291Z,24.03
2018-06-18T01:32:37.780Z,17.30
2018-06-18T01:35:07.889Z,22.03
2018-06-18T01:37:36.696Z,17.30
2018-06-18T01:40:05.672Z,19.13
2018-06-18T01:42:34.070Z,15.27
2018-06-18T01:45:02.706Z,16.77
2018-06-18T01:47:31.506Z,17.30
2018-06-18T01:49:59.699Z,14.20
2018-06-18T01:52:28.463Z,20.53
2018-06-18T01:54:56.627Z,16.07
2018-06-18T01:57:25.032Z,14.27
2018-06-18T01:59:53.592Z,17.87
2018-06-18T02:02:23.188Z,13.33
2018-06-18T02:04:51.557Z,17.37
2018-06-18T02:07:19.934Z,21.53
2018-06-18T02:09:49.168Z,15.67
2018-06-18T02:12:17.650Z,17.67
2018-06-18T02:14:46.318Z,19.57
2018-06-18T02:17:14.711Z,16.57
2018-06-18T02:19:43.412Z,24.07
2018-06-18T02:22:12.184Z,15.10
2018-06-18T02:24:40.746Z,13.90
2018-06-18T02:27:16.953Z,13.87
2018-06-18T02:29:52.327Z,16.53
2018-06-18T02:32:26.074Z,16.57
2018-06-18T02:35:00.100Z,14.93
2018-06-18T02:37:33.714Z,16.33
2018-06-18T02:40:08.245Z,21.13
2018-06-18T02:42:36.658Z,14.83
2018-06-18T02:45:05.634Z,13.70
2018-06-18T02:47:34.605Z,14.00
2018-06-18T02:50:03.131Z,15.50
2018-06-18T02:52:32.206Z,13.17
2018-06-18T02:55:00.587Z,14.13
2018-06-18T02:57:29.478Z,18.47
2018-06-18T02:59:58.241Z,13.97
2018-06-18T03:02:27.129Z,11.67
2018-06-18T03:04:55.825Z,14.50
2018-06-18T03:07:24.425Z,15.17
2018-06-18T03:09:54.185Z,13.63
2018-06-18T03:12:22.797Z,13.70
2018-06-18T03:14:51.707Z,13.87
2018-06-18T03:17:20.660Z,14.13
2018-06-18T03:19:54.583Z,16.97
2018-06-18T03:22:28.880Z,13.57
2018-06-18T03:25:02.560Z,20.83
2018-06-18T03:27:36.894Z,15.17
2018-06-18T03:30:05.654Z,17.00
2018-06-18T03:32:34.094Z,16.07
2018-06-18T03:35:02.986Z,12.93
2018-06-18T03:37:31.534Z,13.60
2018-06-18T03:39:59.708Z,13.87
2018-06-18T03:42:28.287Z,13.33
2018-06-18T03:45:31.097Z,13.60
2018-06-18T03:48:05.660Z,16.63
2018-06-18T03:50:34.615Z,21.80
2018-06-18T03:53:03.123Z,13.83
2018-06-18T03:55:41.633Z,19.87
2018-06-18T03:58:10.224Z,15.23
2018-06-18T04:01:55.552Z,14.20
2018-06-18T04:04:30.078Z,14.17
2018-06-18T04:07:04.445Z,19.97
2018-06-18T04:09:38.085Z,13.67
2018-06-18T04:12:09.874Z,13.73
2018-06-18T04:14:38.259Z,22.23
2018-06-18T04:17:06.936Z,11.80
2018-06-18T04:19:35.589Z,12.20
2018-06-18T04:22:04.259Z,13.17
2018-06-18T04:24:32.679Z,16.13
2018-06-18T04:27:01.109Z,12.60
2018-06-18T04:29:29.941Z,22.93
2018-06-18T04:31:58.343Z,11.27
2018-06-18T04:34:39.746Z,11.23
2018-06-18T04:37:09.320Z,11.80
2018-06-18T04:39:37.753Z,20.27
2018-06-18T04:42:12.243Z,13.40
2018-06-18T04:44:45.967Z,10.43
2018-06-18T04:48:19.228Z,15.67
2018-06-18T04:50:52.888Z,12.03
2018-06-18T04:53:21.615Z,16.97
2018-06-18T04:55:50.216Z,9.87
2018-06-18T04:58:18.628Z,10.47
2018-06-18T05:00:59.960Z,11.03
2018-06-18T05:03:28.440Z,12.13
2018-06-18T05:05:59.439Z,9.10
2018-06-18T05:10:36.393Z,10.90
2018-06-18T05:13:06.374Z,10.57
2018-06-18T05:15:37.105Z,12.03
2018-06-18T05:18:05.979Z,11.13
2018-06-18T05:20:34.485Z,12.00
2018-06-18T05:23:05.652Z,9.33
2018-06-18T05:25:34.345Z,9.20
2018-06-18T05:28:02.785Z,8.70
2018-06-18T05:30:31.691Z,11.77
2018-06-18T05:32:59.843Z,8.13
2018-06-18T05:35:29.154Z,8.00
2018-06-18T05:38:03.183Z,12.30
2018-06-18T05:40:31.590Z,13.80
2018-06-18T05:43:00.445Z,8.90
2018-06-18T05:45:29.438Z,9.73
2018-06-18T05:47:57.881Z,9.73
2018-06-18T05:50:26.487Z,10.03
2018-06-18T05:52:57.836Z,11.50
2018-06-18T05:55:29.270Z,8.90
2018-06-18T05:57:57.725Z,9.23
2018-06-18T06:00:26.367Z,8.70
2018-06-18T06:02:54.926Z,10.73
2018-06-18T06:05:24.947Z,14.67
2018-06-18T06:07:54.365Z,9.67
2018-06-18T06:10:22.798Z,10.03
2018-06-18T06:12:52.137Z,12.37
2018-06-18T06:15:20.522Z,10.30
2018-06-18T06:17:49.482Z,6.80
2018-06-18T06:20:18.482Z,9.63
2018-06-18T06:22:47.168Z,9.30
2018-06-18T06:25:16.605Z,11.60
2018-06-18T06:27:45.200Z,8.87
2018-06-18T06:30:14.889Z,9.63
2018-06-18T06:32:43.385Z,9.37
2018-06-18T06:35:30.303Z,9.33
2018-06-18T06:37:59.194Z,7.40
2018-06-18T06:40:27.752Z,9.80
2018-06-18T06:42:56.665Z,6.97
2018-06-18T06:45:25.257Z,8.73
2018-06-18T06:47:53.693Z,7.90
2018-06-18T06:50:22.423Z,6.93
2018-06-18T06:52:51.025Z,8.30
2018-06-18T06:55:19.636Z,11.17
2018-06-18T06:57:48.042Z,9.20
2018-06-18T07:00:16.660Z,9.23
2018-06-18T07:02:45.045Z,11.03
2018-06-18T07:05:13.434Z,12.33
2018-06-18T07:07:42.579Z,11.00
2018-06-18T07:10:11.387Z,8.20
2018-06-18T07:12:39.933Z,8.57
2018-06-18T07:15:08.373Z,7.10
2018-06-18T07:17:37.912Z,7.93
2018-06-18T07:20:06.913Z,8.37
2018-06-18T07:22:35.421Z,9.23
2018-06-18T07:25:03.820Z,7.20
2018-06-18T07:27:32.233Z,5.23
2018-06-18T07:30:00.647Z,8.03
2018-06-18T07:32:29.647Z,7.63
2018-06-18T07:34:58.294Z,9.93
2018-06-18T07:37:26.739Z,9.40
2018-06-18T07:39:55.605Z,6.57
2018-06-18T07:42:24.053Z,9.63
2018-06-18T07:44:52.447Z,5.00
2018-06-18T07:47:21.127Z,6.00
2018-06-18T07:49:49.633Z,7.23
2018-06-18T07:52:18.582Z,7.93
2018-06-18T07:54:47.627Z,6.87
2018-06-18T07:57:16.177Z,6.40
2018-06-18T07:59:44.604Z,7.00
2018-06-18T08:02:13.483Z,6.30
2018-06-18T08:04:42.135Z,8.47
2018-06-18T08:07:11.071Z,6.80
2018-06-18T08:09:39.505Z,8.87
2018-06-18T08:12:08.057Z,7.87
2018-06-18T08:14:36.988Z,6.80
2018-06-18T08:17:05.641Z,5.63
2018-06-18T08:19:34.179Z,5.40
2018-06-18T08:22:02.811Z,7.70
2018-06-18T08:24:31.373Z,6.47
2018-06-18T08:26:59.879Z,6.30
2018-06-18T08:29:29.312Z,6.33
2018-06-18T08:31:58.421Z,6.83
2018-06-18T08:34:27.318Z,5.17
2018-06-18T08:36:55.726Z,6.17
2018-06-18T08:39:24.189Z,7.23
2018-06-18T08:41:52.657Z,7.33
2018-06-18T08:44:21.414Z,6.53
2018-06-18T08:46:50.732Z,6.00
2018-06-18T08:49:19.736Z,6.10
2018-06-18T08:51:53.819Z,5.93
2018-06-18T08:54:27.556Z,5.37
2018-06-18T08:57:01.196Z,5.17
2018-06-18T08:59:35.926Z,6.37
2018-06-18T09:02:04.735Z,7.20
2018-06-18T09:04:38.983Z,7.47
2018-06-18T09:07:15.998Z,7.47
2018-06-18T09:09:45.609Z,6.43
2018-06-18T09:12:14.061Z,7.43
2018-06-18T09:14:43.457Z,6.00
2018-06-18T09:17:13.115Z,5.80
2018-06-18T09:19:42.007Z,7.87
2018-06-18T09:22:10.612Z,7.93
2018-06-18T09:24:39.199Z,7.13
2018-06-18T09:27:13.617Z,5.60
2018-06-18T09:29:47.496Z,5.60
2018-06-18T09:32:16.709Z,5.33
2018-06-18T09:34:45.181Z,6.23
2018-06-18T09:37:14.003Z,7.17
2018-06-18T09:39:42.468Z,7.57
2018-06-18T09:42:10.918Z,4.77
2018-06-18T09:44:39.303Z,5.90
2018-06-18T09:47:07.805Z,7.53
2018-06-18T09:49:41.674Z,9.17
2018-06-18T09:52:16.609Z,5.43
2018-06-18T09:54:51.745Z,4.60
2018-06-18T09:57:26.717Z,6.97
2018-06-18T10:00:16.834Z,5.07
2018-06-18T10:02:46.452Z,6.03
2018-06-18T10:05:14.906Z,5.13
2018-06-18T10:07:43.694Z,4.57
2018-06-18T10:10:12.167Z,5.23
2018-06-18T10:12:41.261Z,7.10
2018-06-18T10:15:09.930Z,6.60
2018-06-18T10:17:38.608Z,5.60
2018-06-18T10:20:07.142Z,5.17
2018-06-18T10:22:35.543Z,7.00
2018-06-18T10:25:04.698Z,7.20
2018-06-18T10:27:33.708Z,5.30
2018-06-18T10:30:02.335Z,4.87
2018-06-18T10:32:36.900Z,5.73
2018-06-18T10:37:15.803Z,5.40
2018-06-18T10:39:49.740Z,5.03
2018-06-18T10:42:23.977Z,5.60
2018-06-18T10:44:52.808Z,5.00
2018-06-18T10:47:21.418Z,4.83
2018-06-18T10:49:49.815Z,5.80
2018-06-18T10:52:19.368Z,7.37
2018-06-18T10:54:47.747Z,5.70
2018-06-18T10:57:16.276Z,4.77
2018-06-18T10:59:45.996Z,4.60
2018-06-18T11:02:14.518Z,4.37
2018-06-18T11:04:48.990Z,6.70
2018-06-18T11:07:17.353Z,4.40
2018-06-18T11:09:45.828Z,5.73
2018-06-18T11:12:14.602Z,6.53
2018-06-18T11:14:43.430Z,4.67
2018-06-18T11:17:18.013Z,5.17
2018-06-18T11:19:52.332Z,7.67
2018-06-18T11:22:23.341Z,4.10
2018-06-18T11:24:57.632Z,5.47
2018-06-18T11:27:26.152Z,4.13
2018-06-18T11:29:54.699Z,7.53
2018-06-18T11:32:23.782Z,6.17
2018-06-18T11:34:52.471Z,6.90
2018-06-18T11:37:21.099Z,6.03
2018-06-18T11:39:49.512Z,5.17
2018-06-18T11:42:17.947Z,7.73
2018-06-18T11:44:46.432Z,8.70
2018-06-18T11:47:14.839Z,7.30
2018-06-18T11:49:43.570Z,5.63
2018-06-18T11:52:11.963Z,5.83
2018-06-18T11:54:40.357Z,9.40
2018-06-18T11:57:08.989Z,9.33
2018-06-18T11:59:43.174Z,5.23
2018-06-18T12:02:17.377Z,6.13
2018-06-18T12:04:51.380Z,7.23
2018-06-18T12:07:25.328Z,6.60
2018-06-18T12:09:54.914Z,5.33
2018-06-18T12:12:23.321Z,5.97
2018-06-18T12:14:51.779Z,7.40
2018-06-18T12:17:20.497Z,5.20
2018-06-18T12:19:48.907Z,5.60
2018-06-18T12:22:17.325Z,6.40
2018-06-18T12:24:45.759Z,8.63
2018-06-18T12:27:17.390Z,6.83
2018-06-18T12:29:45.963Z,10.43
2018-06-18T12:32:14.555Z,5.93
2018-06-18T12:34:43.125Z,7.30
2018-06-18T12:37:11.716Z,6.43
2018-06-18T12:39:40.236Z,5.97
2018-06-18T12:42:09.572Z,6.23
2018-06-18T12:45:47.873Z,6.47
2018-06-18T12:48:22.202Z,7.20
2018-06-18T12:50:55.831Z,6.63
2018-06-18T12:53:30.061Z,8.47
2018-06-18T12:56:03.732Z,5.73
2018-06-18T12:58:33.011Z,5.17
2018-06-18T13:01:01.408Z,7.13
2018-06-18T13:03:30.491Z,8.30
2018-06-18T13:05:59.507Z,6.23
2018-06-18T13:08:28.108Z,5.33
2018-06-18T13:10:56.977Z,6.00
2018-06-18T13:13:25.483Z,6.83
2018-06-18T13:15:54.053Z,5.33
2018-06-18T13:18:22.427Z,6.83
2018-06-18T13:20:51.132Z,6.20
2018-06-18T13:23:20.020Z,8.20
2018-06-18T13:25:49.774Z,5.63
2018-06-18T13:28:18.623Z,6.47
2018-06-18T13:30:47.363Z,5.90
2018-06-18T13:33:15.952Z,7.07
2018-06-18T13:35:44.412Z,5.23
2018-06-18T13:38:19.038Z,5.60
2018-06-18T13:40:52.814Z,7.50
2018-06-18T13:44:26.098Z,5.77
2018-06-18T13:46:59.946Z,6.47
2018-06-18T13:49:33.832Z,6.93
2018-06-18T13:52:02.504Z,7.50
2018-06-18T13:54:31.528Z,7.10
2018-06-18T13:57:00.261Z,6.87
2018-06-18T13:59:29.387Z,8.23
2018-06-18T14:01:58.505Z,7.60
2018-06-18T14:04:27.193Z,8.90
2018-06-18T14:06:55.969Z,7.03
2018-06-18T14:09:24.963Z,3.53
2018-06-18T14:11:53.762Z,5.13
2018-06-18T14:14:22.717Z,7.37
2018-06-18T14:16:50.919Z,6.20
2018-06-18T14:19:24.901Z,7.57
2018-06-18T14:21:53.932Z,6.07
2018-06-18T14:24:23.215Z,8.80
2018-06-18T14:26:51.896Z,11.17
2018-06-18T14:29:26.448Z,5.90
2018-06-18T14:31:56.814Z,6.67
2018-06-18T14:34:31.343Z,6.17
2018-06-18T14:37:05.621Z,5.23
2018-06-18T14:40:38.729Z,6.90
2018-06-18T14:43:07.505Z,8.77
2018-06-18T14:45:36.290Z,7.13
2018-06-18T14:48:05.865Z,7.43
2018-06-18T14:50:34.519Z,5.87
2018-06-18T14:53:04.065Z,6.87
2018-06-18T14:55:32.730Z,8.03
2018-06-18T14:58:01.454Z,8.37
2018-06-18T15:00:31.590Z,8.20
2018-06-18T15:03:00.190Z,4.93
2018-06-18T15:05:32.671Z,7.50
2018-06-18T15:08:01.396Z,6.43
2018-06-18T15:10:36.004Z,6.30
2018-06-18T15:13:05.680Z,5.27
2018-06-18T15:15:40.257Z,5.83
2018-06-18T15:18:09.071Z,7.13
2018-06-18T15:20:37.481Z,3.73
2018-06-18T15:23:07.647Z,6.07
2018-06-18T15:25:40.319Z,5.30
2018-06-18T15:28:09.809Z,4.10
2018-06-18T15:30:38.681Z,5.83
2018-06-18T15:33:07.091Z,4.60
2018-06-18T15:35:35.852Z,6.60
2018-06-18T15:38:04.976Z,7.03
2018-06-18T15:40:33.738Z,5.33
2018-06-18T15:43:02.764Z,4.40
2018-06-18T15:45:32.225Z,7.13
2018-06-18T15:48:00.677Z,3.70
2018-06-18T15:50:29.672Z,5.20
2018-06-18T15:52:58.829Z,7.20
2018-06-18T15:55:28.038Z,7.00
2018-06-18T15:57:56.776Z,4.10
2018-06-18T16:00:25.462Z,5.60
2018-06-18T16:02:53.966Z,4.70
2018-06-18T16:05:22.536Z,5.57
2018-06-18T16:07:51.677Z,7.47
2018-06-18T16:10:20.814Z,5.23
2018-06-18T16:12:49.579Z,6.73
2018-06-18T16:15:18.255Z,5.73
2018-06-18T16:17:46.856Z,6.67
2018-06-18T16:20:15.545Z,6.27
2018-06-18T16:22:44.166Z,5.70
2018-06-18T16:25:13.189Z,7.40
2018-06-18T16:27:41.772Z,5.43
2018-06-18T16:30:10.583Z,5.73
2018-06-18T16:32:39.238Z,9.50
2018-06-18T16:35:07.977Z,4.47
2018-06-18T16:37:37.038Z,5.23
2018-06-18T16:40:06.020Z,5.80
2018-06-18T16:42:34.867Z,4.63
2018-06-18T16:45:03.002Z,6.40
2018-06-18T16:47:31.834Z,4.10
2018-06-18T16:50:00.521Z,5.53
2018-06-18T16:52:29.424Z,6.53
2018-06-18T16:54:58.033Z,9.30
2018-06-18T16:57:27.356Z,6.53
2018-06-18T16:59:56.127Z,9.33
2018-06-18T17:02:24.561Z,6.73
2018-06-18T17:04:53.129Z,4.87
2018-06-18T17:07:21.552Z,4.83
2018-06-18T17:09:50.107Z,6.40
2018-06-18T17:12:19.118Z,5.17
2018-06-18T17:14:48.308Z,5.17
2018-06-18T17:17:16.809Z,6.50
2018-06-18T17:19:45.885Z,4.93
2018-06-18T17:22:15.076Z,3.53
2018-06-18T17:24:43.646Z,7.70
2018-06-18T17:27:12.065Z,6.47
2018-06-18T17:29:40.929Z,5.90
2018-06-18T17:32:09.380Z,6.73
2018-06-18T17:34:38.021Z,6.17
2018-06-18T17:37:06.959Z,6.43
2018-06-18T17:39:36.314Z,6.87
2018-06-18T17:42:05.140Z,5.77
2018-06-18T17:44:33.810Z,4.23
2018-06-18T17:47:03.454Z,5.83
2018-06-18T17:49:31.935Z,4.93
2018-06-18T17:52:00.827Z,4.60
2018-06-18T17:54:29.745Z,6.40
2018-06-18T17:56:58.537Z,8.03
2018-06-18T17:59:27.172Z,4.30
2018-06-18T18:01:57.262Z,4.77
2018-06-18T18:04:25.875Z,5.83
2018-06-18T18:06:54.617Z,6.43
2018-06-18T18:09:24.287Z,4.50
2018-06-18T18:11:52.822Z,3.50
2018-06-18T18:14:22.150Z,6.13
2018-06-18T18:16:51.436Z,4.83
2018-06-18T18:19:20.594Z,6.10
2018-06-18T18:21:50.070Z,6.50
2018-06-18T18:24:18.602Z,5.93
2018-06-18T18:26:48.304Z,4.63
2018-06-18T18:29:17.186Z,6.53
2018-06-18T18:31:45.823Z,5.23
2018-06-18T18:34:14.310Z,4.90
2018-06-18T18:36:43.161Z,4.53
2018-06-18T18:39:12.128Z,5.90
2018-06-18T18:41:41.129Z,7.43
2018-06-18T18:44:10.336Z,4.60
2018-06-18T18:46:38.907Z,6.70
2018-06-18T18:49:07.722Z,6.27
2018-06-18T18:51:36.159Z,5.43
2018-06-18T18:54:05.715Z,6.43
2018-06-18T18:58:47.134Z,5.90
2018-06-18T19:01:16.427Z,6.80
2018-06-18T19:03:57.993Z,3.73
2018-06-18T19:06:26.904Z,3.43
2018-06-18T19:08:57.528Z,5.87
2018-06-18T19:11:26.320Z,11.00
2018-06-18T19:13:54.795Z,6.53
2018-06-18T19:16:29.689Z,4.30
2018-06-18T19:19:01.824Z,4.33
2018-06-18T19:21:31.066Z,6.20
2018-06-18T19:24:00.531Z,6.40
2018-06-18T19:26:30.174Z,6.63
2018-06-18T19:28:59.396Z,5.30
2018-06-18T19:31:28.152Z,6.37
2018-06-18T19:34:16.407Z,5.07
2018-06-18T19:36:48.566Z,4.90
2018-06-18T19:39:18.083Z,4.13
2018-06-18T19:41:46.828Z,5.27
2018-06-18T19:44:15.830Z,4.97
2018-06-18T19:48:06.986Z,4.50
2018-06-18T19:50:35.981Z,5.30
2018-06-18T19:53:05.187Z,5.47
2018-06-18T19:55:34.149Z,3.83
2018-06-18T19:58:03.282Z,6.53
2018-06-18T20:00:49.342Z,4.43
2018-06-18T20:03:17.971Z,8.17
2018-06-18T20:05:47.529Z,4.77
2018-06-18T20:08:18.100Z,6.80
2018-06-18T20:10:46.967Z,6.13
2018-06-18T20:13:15.594Z,5.73
2018-06-18T20:15:44.176Z,6.00
2018-06-18T20:18:13.303Z,5.73
2018-06-18T20:20:42.052Z,6.63
2018-06-18T20:23:14.227Z,4.77
2018-06-18T20:25:45.366Z,6.17
2018-06-18T20:28:14.595Z,6.17
2018-06-18T20:30:43.069Z,11.07
2018-06-18T20:33:13.134Z,6.03
2018-06-18T20:35:44.983Z,6.30
2018-06-18T20:38:13.521Z,8.57
2018-06-18T20:40:41.957Z,7.20
2018-06-18T20:43:10.746Z,10.07
2018-06-18T20:45:39.785Z,6.80
2018-06-18T20:48:08.640Z,8.00
2018-06-18T20:50:37.594Z,11.13
2018-06-18T20:53:06.713Z,7.50
2018-06-18T20:55:35.217Z,9.87
2018-06-18T20:58:04.053Z,7.57
2018-06-18T21:00:32.489Z,8.00
2018-06-18T21:03:00.967Z,6.90
2018-06-18T21:05:32.320Z,7.10
2018-06-18T21:08:01.658Z,9.37
2018-06-18T21:10:30.497Z,7.20
2018-06-18T21:12:59.249Z,6.53
2018-06-18T21:15:29.446Z,15.10
2018-06-18T21:17:58.115Z,7.73
2018-06-18T21:20:27.075Z,9.80
2018-06-18T21:22:55.821Z,7.03
2018-06-18T21:25:24.212Z,13.30
2018-06-18T21:27:55.231Z,10.37
2018-06-18T21:30:24.294Z,5.93
2018-06-18T21:32:52.689Z,9.00
2018-06-18T21:35:22.184Z,10.30
2018-06-18T21:37:51.210Z,8.10
2018-06-18T21:40:19.668Z,8.73
2018-06-18T21:42:48.400Z,11.43
2018-06-18T21:45:19.699Z,7.07
2018-06-18T21:47:49.991Z,10.43
2018-06-18T21:50:18.700Z,10.80
2018-06-18T21:52:47.314Z,6.97
2018-06-18T21:55:16.667Z,8.10
